Time;durP1;ratioP1;P1;durP2;ratioP2;P2;SDS_P1;SDS_P2;PMS_P1;PMS_P2;Temp;Humidity;BMP_temperature;BMP_pressure;BME280_temperature;BME280_humidity;BME280_pressure;Samples;Min_cycle;Max_cycle;Signal;HPM_P1;HPM_P2
2021/04/07 00:03:09;;;;;;;12.13;4.43;;;0.80;99.90;;;;;;12364919;28;20046;-42
2021/04/07 00:09:11;;;;;;;11.77;3.85;;;0.90;99.90;;;;;;12365118;28;20054;-43
2021/04/07 00:15:19;;;;;;;15.65;4.03;;;0.90;99.90;;;;;;12366691;28;20138;-43
2021/04/07 00:21:21;;;;;;;8.65;3.60;;;0.80;99.90;;;;;;12362717;28;20127;-43
2021/04/07 00:27:26;;;;;;;12.38;4.00;;;0.70;99.90;;;;;;12371948;28;20104;-42
2021/04/07 00:33:28;;;;;;;9.57;4.55;;;0.70;99.90;;;;;;12373170;28;20054;-43
2021/04/07 00:39:29;;;;;;;10.60;4.30;;;0.70;99.90;;;;;;12365207;28;20141;-42
2021/04/07 00:45:31;;;;;;;14.13;3.95;;;0.70;99.90;;;;;;12364089;28;20096;-43
2021/04/07 00:51:32;;;;;;;9.70;3.63;;;0.60;99.90;;;;;;12371363;28;20081;-42
2021/04/07 00:57:34;;;;;;;13.20;3.45;;;0.60;99.90;;;;;;12362930;28;20104;-43
2021/04/07 01:03:35;;;;;;;10.77;4.40;;;0.60;99.90;;;;;;12368444;28;20662;-43
2021/04/07 01:09:36;;;;;;;13.20;5.63;;;0.50;99.90;;;;;;12359636;28;20050;-42
2021/04/07 01:15:38;;;;;;;10.52;5.03;;;0.40;99.90;;;;;;12368419;28;20050;-44
2021/04/07 01:21:42;;;;;;;12.90;5.00;;;0.60;99.90;;;;;;12369406;28;20046;-42
2021/04/07 01:27:43;;;;;;;12.30;4.60;;;0.60;99.90;;;;;;12373081;28;20601;-43
2021/04/07 01:33:45;;;;;;;16.40;4.35;;;0.50;99.90;;;;;;12366326;28;20104;-46
2021/04/07 01:39:46;;;;;;;12.02;3.97;;;0.30;99.90;;;;;;12367537;28;20388;-42
2021/04/07 01:45:49;;;;;;;13.50;3.88;;;0.30;99.90;;;;;;12364260;28;20097;-43
2021/04/07 01:51:50;;;;;;;10.65;2.90;;;0.10;99.90;;;;;;12381459;28;20900;-42
2021/04/07 01:57:51;;;;;;;7.82;2.50;;;0.00;99.90;;;;;;12370319;28;20058;-42
2021/04/07 02:03:54;;;;;;;9.57;3.10;;;0.00;99.90;;;;;;12366061;28;20494;-43
2021/04/07 02:09:59;;;;;;;12.90;2.90;;;-0.20;99.90;;;;;;12372350;28;20121;-43
2021/04/07 02:16:00;;;;;;;10.57;2.78;;;-0.20;99.90;;;;;;12362668;28;20058;-43
2021/04/07 02:22:02;;;;;;;9.55;2.75;;;0.10;99.90;;;;;;12360222;28;20084;-42
2021/04/07 02:28:04;;;;;;;13.45;3.63;;;-0.10;99.90;;;;;;12366787;28;20061;-42
2021/04/07 02:34:05;;;;;;;16.98;3.58;;;-0.20;99.90;;;;;;12357641;28;20056;-43
2021/04/07 02:40:07;;;;;;;12.00;3.33;;;-0.20;99.90;;;;;;12359226;28;20054;-42
2021/04/07 02:46:09;;;;;;;17.45;2.75;;;-0.20;99.90;;;;;;12363260;28;20054;-43
2021/04/07 02:52:10;;;;;;;11.70;3.58;;;-0.20;99.90;;;;;;12364007;28;20060;-44
2021/04/07 02:58:12;;;;;;;15.40;3.60;;;-0.20;99.90;;;;;;12360310;28;20058;-42
2021/04/07 03:04:15;;;;;;;7.80;2.35;;;-0.30;99.90;;;;;;12360638;28;20042;-44
2021/04/07 03:10:16;;;;;;;13.50;2.60;;;-0.20;99.90;;;;;;12360822;28;20132;-45
2021/04/07 03:16:17;;;;;;;14.43;3.13;;;-0.30;99.90;;;;;;12356045;28;20054;-42
2021/04/07 03:22:19;;;;;;;9.45;2.53;;;-0.30;99.90;;;;;;12361496;28;20081;-42
2021/04/07 03:28:20;;;;;;;10.23;3.00;;;-0.10;99.90;;;;;;12358603;28;20144;-42
2021/04/07 03:34:22;;;;;;;10.77;2.50;;;-0.10;99.90;;;;;;12358207;28;20123;-42
2021/04/07 03:40:23;;;;;;;12.43;2.20;;;-0.10;99.90;;;;;;12360938;28;20046;-42
2021/04/07 03:46:24;;;;;;;12.82;2.40;;;0.10;99.90;;;;;;12374555;28;20054;-42
2021/04/07 03:52:26;;;;;;;10.25;2.25;;;0.20;99.90;;;;;;12377330;28;20848;-43
2021/04/07 03:58:27;;;;;;;14.07;2.30;;;0.30;99.90;;;;;;12382045;28;20057;-44
2021/04/07 04:04:28;;;;;;;12.68;2.55;;;0.20;99.90;;;;;;12365504;28;20058;-42
2021/04/07 04:10:31;;;;;;;11.57;2.38;;;0.30;99.90;;;;;;12363446;28;20054;-42
2021/04/07 04:16:33;;;;;;;11.35;2.28;;;0.20;99.90;;;;;;12371793;28;20064;-42
2021/04/07 04:22:34;;;;;;;8.75;2.60;;;0.20;99.90;;;;;;12368939;28;20482;-42
2021/04/07 04:28:37;;;;;;;9.07;2.30;;;0.10;99.90;;;;;;12368984;28;20443;-44
2021/04/07 04:34:38;;;;;;;13.05;2.70;;;0.20;99.90;;;;;;12368386;28;20637;-43
2021/04/07 04:40:40;;;;;;;9.13;2.28;;;0.20;99.90;;;;;;12369642;28;20116;-43
2021/04/07 04:46:41;;;;;;;11.52;2.70;;;0.20;99.90;;;;;;12364120;28;20054;-42
2021/04/07 04:52:42;;;;;;;7.75;2.50;;;0.10;99.90;;;;;;12365856;28;20170;-43
2021/04/07 04:58:44;;;;;;;12.25;2.83;;;0.30;99.90;;;;;;12367297;28;20658;-42
2021/04/07 05:04:45;;;;;;;10.15;2.83;;;0.20;99.90;;;;;;12370253;28;20050;-42
2021/04/07 05:10:48;;;;;;;10.38;4.43;;;0.20;99.90;;;;;;12365312;28;20050;-42
2021/04/07 05:16:49;;;;;;;10.55;2.92;;;0.30;99.90;;;;;;12376641;28;20540;-44
2021/04/07 05:22:52;;;;;;;6.95;3.00;;;0.40;99.90;;;;;;12371212;28;20161;-42
2021/04/07 05:28:54;;;;;;;10.38;2.88;;;0.40;99.90;;;;;;12359061;28;20197;-43
2021/04/07 05:34:55;;;;;;;8.88;3.03;;;0.40;99.90;;;;;;12360581;28;20042;-42
2021/04/07 05:40:57;;;;;;;8.43;3.45;;;0.40;99.90;;;;;;12370490;28;20139;-43
2021/04/07 05:46:58;;;;;;;9.43;2.80;;;0.50;99.90;;;;;;12367119;28;20077;-50
2021/04/07 05:53:00;;;;;;;11.20;3.10;;;0.60;99.90;;;;;;12366498;28;20054;-43
2021/04/07 05:59:02;;;;;;;10.48;3.03;;;0.50;99.90;;;;;;12365237;28;20069;-42
2021/04/07 06:05:04;;;;;;;10.38;3.63;;;0.60;99.90;;;;;;12356286;28;20054;-43
2021/04/07 06:11:05;;;;;;;15.32;3.90;;;0.60;99.90;;;;;;12362148;28;20097;-43
2021/04/07 06:17:07;;;;;;;10.60;3.38;;;0.70;99.90;;;;;;12367283;28;20672;-43
2021/04/07 06:23:09;;;;;;;11.90;3.42;;;0.80;99.90;;;;;;12365663;28;20085;-43
2021/04/07 06:29:10;;;;;;;13.48;4.72;;;0.80;99.90;;;;;;12366300;28;20589;-42
2021/04/07 06:35:13;;;;;;;19.58;4.55;;;0.80;99.90;;;;;;12361103;28;20442;-43
2021/04/07 06:41:15;;;;;;;15.00;3.78;;;0.90;99.90;;;;;;12362958;28;20387;-43
2021/04/07 06:47:17;;;;;;;13.95;3.72;;;0.90;99.90;;;;;;12359114;28;20145;-45
2021/04/07 06:53:23;;;;;;;8.48;3.35;;;0.90;99.90;;;;;;12357475;28;20163;-43
2021/04/07 06:59:26;;;;;;;10.80;4.35;;;0.90;99.90;;;;;;12363035;28;20076;-43
2021/04/07 07:05:29;;;;;;;8.88;4.05;;;1.00;99.90;;;;;;12360886;28;20057;-43
2021/04/07 07:11:31;;;;;;;10.75;4.18;;;1.30;99.90;;;;;;12358652;28;20768;-43
2021/04/07 07:17:35;;;;;;;8.80;3.60;;;1.40;99.90;;;;;;12368036;28;20341;-45
2021/04/07 07:23:37;;;;;;;7.75;3.88;;;1.50;99.90;;;;;;12360363;28;20470;-43
2021/04/07 07:29:39;;;;;;;9.20;4.20;;;1.60;99.90;;;;;;12361298;28;20050;-45
2021/04/07 07:35:41;;;;;;;13.60;5.30;;;1.50;99.90;;;;;;12354811;28;20437;-44
2021/04/07 07:41:43;;;;;;;11.38;5.53;;;1.40;99.90;;;;;;12360562;28;20045;-43
2021/04/07 07:48:07;;;;;;;12.35;5.75;;;1.50;99.90;;;;;;12357232;28;20042;-43
2021/04/07 07:54:13;;;;;;;15.27;7.70;;;1.60;99.90;;;;;;12364363;28;20550;-43
2021/04/07 08:00:15;;;;;;;14.90;8.68;;;1.70;99.90;;;;;;12348527;28;20141;-46
2021/04/07 08:06:17;;;;;;;16.83;10.23;;;1.70;99.90;;;;;;12355590;28;20116;-43
2021/04/07 08:12:21;;;;;;;17.10;11.55;;;1.60;99.90;;;;;;12355292;28;20173;-44
2021/04/07 08:18:25;;;;;;;22.05;13.07;;;1.70;99.90;;;;;;12360018;28;20141;-45
2021/04/07 08:24:29;;;;;;;19.92;14.23;;;1.70;99.90;;;;;;12363471;28;20181;-43
2021/04/07 08:30:31;;;;;;;26.67;14.57;;;1.70;99.90;;;;;;12366875;28;20465;-43
2021/04/07 08:36:33;;;;;;;22.70;15.80;;;1.80;99.90;;;;;;12363682;28;20557;-43
2021/04/07 08:42:35;;;;;;;23.70;16.25;;;1.80;99.90;;;;;;12363380;28;20049;-44
2021/04/07 08:48:36;;;;;;;20.00;13.30;;;2.00;99.90;;;;;;12373576;28;21370;-43
2021/04/07 08:54:43;;;;;;;23.65;15.10;;;1.90;99.90;;;;;;12368270;28;20054;-44
2021/04/07 09:00:51;;;;;;;22.02;15.43;;;2.20;99.90;;;;;;12367107;28;20049;-45
2021/04/07 09:07:00;;;;;;;20.75;14.32;;;2.40;99.90;;;;;;12363333;28;20056;-43
2021/04/07 09:13:05;;;;;;;22.05;13.80;;;2.40;99.90;;;;;;12360057;28;20054;-43
2021/04/07 09:19:21;;;;;;;18.98;13.65;;;2.50;99.90;;;;;;12368306;28;20068;-45
2021/04/07 09:25:32;;;;;;;16.38;11.75;;;2.90;99.90;;;;;;12355967;28;20450;-43
2021/04/07 09:31:35;;;;;;;14.70;10.52;;;2.90;99.90;;;;;;12368767;28;20046;-43
2021/04/07 09:37:39;;;;;;;18.20;10.73;;;3.10;99.90;;;;;;12363102;28;20450;-43
2021/04/07 09:43:41;;;;;;;14.50;9.95;;;3.40;99.90;;;;;;12363545;28;20053;-44
2021/04/07 09:49:43;;;;;;;11.60;7.78;;;3.10;99.90;;;;;;12362631;28;20096;-44
2021/04/07 09:55:48;;;;;;;12.70;7.68;;;3.00;99.90;;;;;;12358780;28;20116;-43
2021/04/07 10:01:49;;;;;;;11.07;7.72;;;3.40;99.90;;;;;;12366488;28;20050;-42
2021/04/07 10:07:50;;;;;;;11.57;8.40;;;3.40;99.90;;;;;;12360978;28;20459;-43
2021/04/07 10:13:52;;;;;;;9.68;6.90;;;3.60;99.90;;;;;;12367076;28;20433;-43
2021/04/07 10:19:53;;;;;;;8.98;6.30;;;3.40;99.90;;;;;;12364160;28;20092;-43
2021/04/07 10:25:55;;;;;;;8.40;6.40;;;3.60;99.90;;;;;;12364724;28;20107;-46
2021/04/07 10:32:00;;;;;;;9.13;5.47;;;3.70;99.90;;;;;;12360488;28;20466;-43
2021/04/07 10:38:11;;;;;;;9.90;5.10;;;3.80;99.90;;;;;;12364784;28;20065;-43
2021/04/07 10:44:32;;;;;;;6.47;4.53;;;3.90;99.90;;;;;;12365283;28;20046;-43
2021/04/07 10:50:38;;;;;;;6.72;4.63;;;4.30;99.90;;;;;;12363417;28;20392;-43
2021/04/07 10:56:40;;;;;;;4.68;3.28;;;4.60;99.90;;;;;;12369497;28;20493;-43
2021/04/07 11:02:51;;;;;;;5.60;3.72;;;4.60;99.90;;;;;;12357651;28;20604;-43
2021/04/07 11:08:53;;;;;;;5.97;3.67;;;4.80;99.90;;;;;;12367304;28;20099;-44
2021/04/07 11:14:55;;;;;;;5.82;3.90;;;4.80;99.90;;;;;;12363663;28;20056;-43
2021/04/07 11:20:56;;;;;;;6.00;3.75;;;5.10;99.90;;;;;;12358408;28;20396;-43
2021/04/07 11:26:58;;;;;;;5.70;3.25;;;5.70;99.90;;;;;;12366514;28;20052;-44
2021/04/07 11:33:01;;;;;;;6.93;3.10;;;6.00;99.90;;;;;;12359675;28;20128;-43
2021/04/07 11:45:31;;;;;;;5.85;3.10;;;6.40;99.90;;;;;;12367487;28;20042;-43
2021/04/07 11:51:37;;;;;;;6.45;3.17;;;6.80;99.90;;;;;;12365794;28;20050;-43
2021/04/07 11:57:38;;;;;;;7.07;3.30;;;6.30;99.90;;;;;;12363047;28;20144;-43
2021/04/07 12:03:40;;;;;;;5.47;3.20;;;5.90;99.90;;;;;;12369359;28;20563;-43
2021/04/07 12:09:41;;;;;;;6.85;3.38;;;5.60;99.90;;;;;;12365784;28;20054;-43
2021/04/07 12:15:42;;;;;;;9.27;4.07;;;5.50;99.90;;;;;;12369596;28;20169;-43
2021/04/07 12:21:44;;;;;;;7.57;3.85;;;5.60;99.90;;;;;;12370082;28;20077;-42
2021/04/07 12:27:45;;;;;;;5.97;3.78;;;5.70;99.90;;;;;;12370490;28;20046;-43
2021/04/07 12:33:51;;;;;;;6.55;3.25;;;5.70;99.90;;;;;;12367507;28;20061;-46
2021/04/07 12:39:53;;;;;;;9.43;3.63;;;5.60;99.90;;;;;;12368554;28;21254;-43
2021/04/07 12:45:55;;;;;;;11.18;3.50;;;5.70;99.90;;;;;;12363705;28;20157;-44
2021/04/07 12:51:56;;;;;;;9.40;2.90;;;5.30;99.90;;;;;;12365923;28;20054;-44
2021/04/07 12:58:01;;;;;;;7.40;2.20;;;4.80;99.90;;;;;;12370181;28;20054;-45
2021/04/07 13:04:03;;;;;;;10.90;1.63;;;4.70;99.90;;;;;;12360609;28;20141;-43
2021/04/07 13:10:05;;;;;;;7.20;1.40;;;5.10;99.90;;;;;;12367035;28;20073;-43
2021/04/07 13:16:09;;;;;;;10.98;1.58;;;5.80;99.90;;;;;;12363461;28;20506;-43
2021/04/07 13:22:10;;;;;;;11.37;1.50;;;6.10;99.90;;;;;;12367161;28;20459;-42
2021/04/07 13:28:12;;;;;;;7.25;1.70;;;5.60;99.90;;;;;;12372535;28;20410;-43
2021/04/07 13:34:22;;;;;;;9.30;1.92;;;5.60;99.90;;;;;;12369404;28;20046;-43
2021/04/07 13:46:25;;;;;;;7.38;1.50;;;6.20;99.90;;;;;;12358695;28;20042;-43
2021/04/07 13:52:27;;;;;;;7.03;0.63;;;6.10;99.90;;;;;;12358132;28;20560;-43
2021/04/07 13:58:28;;;;;;;4.00;0.90;;;4.20;99.90;;;;;;12357896;28;20054;-43
2021/04/07 14:04:29;;;;;;;8.43;1.65;;;3.30;99.90;;;;;;12363084;28;20046;-43
2021/04/07 14:10:31;;;;;;;6.05;1.27;;;3.50;99.90;;;;;;12360065;28;20046;-43
2021/04/07 14:16:32;;;;;;;7.68;1.23;;;3.80;99.90;;;;;;12354363;28;20057;-43
2021/04/07 14:22:34;;;;;;;11.52;1.58;;;4.00;99.90;;;;;;12367004;28;20054;-45
2021/04/07 14:28:35;;;;;;;6.15;1.00;;;4.30;99.90;;;;;;12367077;28;20050;-43
2021/04/07 14:34:37;;;;;;;3.63;0.77;;;4.20;99.90;;;;;;12357355;28;20548;-44
2021/04/07 14:40:38;;;;;;;5.50;0.80;;;4.40;99.90;;;;;;12364187;28;20057;-45
2021/04/07 14:46:40;;;;;;;5.85;0.98;;;4.50;99.90;;;;;;12365283;28;20046;-43
2021/04/07 14:52:41;;;;;;;5.53;0.93;;;4.50;99.90;;;;;;12367797;28;20061;-42
2021/04/07 14:58:42;;;;;;;4.65;1.00;;;4.90;99.90;;;;;;12361003;28;20069;-44
2021/04/07 15:04:44;;;;;;;4.63;0.90;;;5.20;99.90;;;;;;12365906;28;20074;-43
2021/04/07 15:10:45;;;;;;;3.33;0.90;;;5.20;99.90;;;;;;12359436;28;20100;-42
2021/04/07 15:16:47;;;;;;;6.32;0.90;;;4.90;99.90;;;;;;12366479;28;20432;-43
2021/04/07 15:22:48;;;;;;;5.28;0.90;;;4.80;99.90;;;;;;12368646;28;20089;-43
2021/04/07 15:28:51;;;;;;;5.13;1.00;;;4.90;99.90;;;;;;12366677;28;20156;-44
2021/04/07 15:34:52;;;;;;;10.70;1.55;;;5.20;99.90;;;;;;12374882;28;20267;-43
2021/04/07 15:40:54;;;;;;;4.88;0.75;;;4.80;99.90;;;;;;12377136;28;20447;-43
2021/04/07 15:46:59;;;;;;;6.60;1.05;;;4.40;99.90;;;;;;12377321;28;20058;-42
2021/04/07 15:53:14;;;;;;;11.27;1.80;;;3.30;99.90;;;;;;12373667;28;20058;-45
2021/04/07 15:59:15;;;;;;;8.77;1.07;;;3.00;99.90;;;;;;12373560;28;20054;-43
2021/04/07 16:05:16;;;;;;;10.10;1.20;;;3.20;99.90;;;;;;12374554;28;20090;-42
2021/04/07 16:11:19;;;;;;;5.28;1.23;;;3.40;99.90;;;;;;12376802;28;20054;-44
2021/04/07 16:17:20;;;;;;;8.48;1.30;;;3.70;99.90;;;;;;12376323;28;20140;-44
2021/04/07 16:23:22;;;;;;;5.97;1.40;;;3.90;99.90;;;;;;12369771;28;20060;-43
2021/04/07 16:29:25;;;;;;;8.93;1.67;;;4.10;99.90;;;;;;12371881;28;20137;-42
2021/04/07 16:35:27;;;;;;;11.05;2.03;;;4.40;99.90;;;;;;12370301;28;20137;-42
2021/04/07 16:41:28;;;;;;;4.57;0.98;;;4.20;99.90;;;;;;12368405;28;20050;-43
2021/04/07 16:47:30;;;;;;;3.22;0.75;;;4.10;99.90;;;;;;12368292;28;20839;-42
2021/04/07 16:53:31;;;;;;;4.45;0.90;;;3.00;99.90;;;;;;12367459;28;20096;-43
2021/04/07 16:59:32;;;;;;;7.15;1.80;;;2.70;99.90;;;;;;12370299;28;20489;-43
2021/04/07 17:05:34;;;;;;;5.03;1.27;;;3.20;99.90;;;;;;12359963;28;20047;-42
2021/04/07 17:11:36;;;;;;;4.60;0.98;;;3.70;99.90;;;;;;12365314;28;20058;-44
2021/04/07 17:17:38;;;;;;;3.80;0.95;;;3.80;99.90;;;;;;12362318;28;20046;-46
2021/04/07 17:23:40;;;;;;;6.97;1.30;;;4.20;99.90;;;;;;12352599;28;20073;-44
2021/04/07 17:29:41;;;;;;;5.78;1.00;;;4.20;99.90;;;;;;12353150;28;20050;-43
2021/04/07 17:35:43;;;;;;;7.25;1.30;;;3.60;99.90;;;;;;12358932;28;20046;-43
2021/04/07 17:41:45;;;;;;;9.60;1.50;;;3.30;99.90;;;;;;12356699;28;20042;-42
2021/04/07 17:47:46;;;;;;;6.20;1.13;;;3.20;99.90;;;;;;12360739;28;20705;-42
2021/04/07 17:53:47;;;;;;;7.53;1.40;;;3.20;99.90;;;;;;12362764;28;20053;-43
2021/04/07 17:59:49;;;;;;;7.57;1.83;;;3.10;99.90;;;;;;12365373;28;20058;-43
2021/04/07 18:05:51;;;;;;;7.63;1.80;;;3.20;99.90;;;;;;12361351;28;20625;-42
2021/04/07 18:11:52;;;;;;;5.63;1.55;;;3.20;99.90;;;;;;12360603;28;20482;-45
2021/04/07 18:18:08;;;;;;;10.15;1.48;;;3.10;99.90;;;;;;12365540;28;20148;-43
2021/04/07 18:24:09;;;;;;;12.50;2.53;;;3.10;99.90;;;;;;12362889;28;20052;-44
2021/04/07 18:30:13;;;;;;;10.00;1.85;;;2.90;99.90;;;;;;12358928;28;20418;-43
2021/04/07 18:36:14;;;;;;;10.15;1.80;;;2.80;99.90;;;;;;12359845;28;20054;-44
2021/04/07 18:42:15;;;;;;;7.80;1.42;;;2.70;99.90;;;;;;12364215;28;20438;-43
2021/04/07 18:48:17;;;;;;;3.33;1.10;;;2.70;99.90;;;;;;12364911;28;20460;-43
2021/04/07 18:54:18;;;;;;;5.40;1.48;;;2.90;99.90;;;;;;12358657;28;20055;-42
2021/04/07 19:00:21;;;;;;;7.03;1.40;;;2.80;99.90;;;;;;12364883;28;20124;-42
2021/04/07 19:06:23;;;;;;;8.82;2.53;;;2.80;99.90;;;;;;12358551;28;20833;-43
2021/04/07 19:12:24;;;;;;;6.50;2.22;;;2.70;99.90;;;;;;12368049;28;20493;-43
2021/04/07 19:18:26;;;;;;;11.32;2.30;;;2.60;99.90;;;;;;12358288;28;20046;-43
2021/04/07 19:24:27;;;;;;;8.13;2.00;;;2.50;99.90;;;;;;12347963;28;20057;-44
2021/04/07 19:30:28;;;;;;;11.95;1.73;;;2.60;99.90;;;;;;12358889;28;20112;-43
2021/04/07 19:36:32;;;;;;;10.35;2.20;;;2.70;99.90;;;;;;12358069;28;20050;-43
2021/04/07 19:42:34;;;;;;;7.22;1.48;;;2.70;99.90;;;;;;12362068;28;20296;-43
2021/04/07 19:48:37;;;;;;;7.15;1.55;;;2.70;99.90;;;;;;12355746;28;20054;-43
2021/04/07 19:54:39;;;;;;;9.27;2.30;;;2.60;99.90;;;;;;12355079;28;20046;-42
2021/04/07 20:00:43;;;;;;;8.50;2.08;;;2.50;99.90;;;;;;12356697;28;20050;-44
2021/04/07 20:06:44;;;;;;;7.80;1.88;;;2.50;99.90;;;;;;12362240;28;20046;-45
2021/04/07 20:12:46;;;;;;;9.00;1.80;;;2.50;99.90;;;;;;12359250;28;20045;-43
2021/04/07 20:18:48;;;;;;;13.85;1.95;;;2.50;99.90;;;;;;12362122;28;20479;-43
2021/04/07 20:24:49;;;;;;;10.32;1.90;;;2.50;99.90;;;;;;12371615;28;20118;-43
2021/04/07 20:30:51;;;;;;;10.70;1.40;;;2.50;99.90;;;;;;12378785;28;20055;-43
2021/04/07 20:36:52;;;;;;;11.93;1.67;;;2.40;99.90;;;;;;12369168;28;20876;-45
2021/04/07 20:42:54;;;;;;;7.72;1.38;;;2.40;99.90;;;;;;12371958;28;20080;-42
2021/04/07 20:48:55;;;;;;;10.27;1.70;;;2.30;99.90;;;;;;12370568;28;20042;-44
2021/04/07 20:54:56;;;;;;;4.70;1.15;;;2.20;99.90;;;;;;12367537;28;20078;-44
2021/04/07 21:00:58;;;;;;;13.77;1.73;;;2.10;99.90;;;;;;12367579;28;20042;-42
2021/04/07 21:06:59;;;;;;;11.80;1.52;;;2.10;99.90;;;;;;12368916;28;20490;-43
2021/04/07 21:13:01;;;;;;;15.18;2.25;;;2.10;99.90;;;;;;12359541;28;20054;-43
2021/04/07 21:19:02;;;;;;;12.40;1.92;;;2.20;99.90;;;;;;12370662;28;20467;-44
2021/04/07 21:25:05;;;;;;;11.07;1.58;;;2.20;99.90;;;;;;12367971;28;20488;-43
2021/04/07 21:31:07;;;;;;;12.77;1.90;;;2.20;99.90;;;;;;12371447;28;20052;-43
2021/04/07 21:37:08;;;;;;;12.20;1.77;;;2.10;99.90;;;;;;12367557;28;20060;-42
2021/04/07 21:43:16;;;;;;;7.85;1.35;;;2.10;99.90;;;;;;12368495;28;20681;-44
2021/04/07 21:49:18;;;;;;;12.50;2.33;;;2.10;99.90;;;;;;12370375;28;20054;-42
2021/04/07 21:55:19;;;;;;;9.32;1.48;;;2.00;99.90;;;;;;12364598;28;21202;-43
2021/04/07 22:01:22;;;;;;;12.68;1.80;;;2.10;99.90;;;;;;12368987;28;20049;-43
2021/04/07 22:07:23;;;;;;;8.23;1.95;;;2.10;99.90;;;;;;12372924;28;20080;-42
2021/04/07 22:13:25;;;;;;;7.10;2.40;;;2.00;99.90;;;;;;12365911;28;20137;-44
2021/04/07 22:19:27;;;;;;;7.85;2.30;;;1.90;99.90;;;;;;12371656;28;20043;-44
2021/04/07 22:25:31;;;;;;;8.27;2.50;;;1.80;99.90;;;;;;12368449;28;20049;-44
2021/04/07 22:31:33;;;;;;;12.40;3.57;;;1.80;99.90;;;;;;12364741;28;20049;-43
2021/04/07 22:37:34;;;;;;;12.63;2.00;;;1.80;99.90;;;;;;12363374;28;20289;-43
2021/04/07 22:43:35;;;;;;;13.90;1.77;;;1.70;99.90;;;;;;12366971;28;20046;-43
2021/04/07 22:49:37;;;;;;;10.13;1.60;;;1.80;99.90;;;;;;12367838;28;20054;-42
2021/04/07 22:55:38;;;;;;;15.48;2.40;;;1.80;99.90;;;;;;12370558;28;20141;-43
2021/04/07 23:01:40;;;;;;;11.52;2.28;;;1.70;99.90;;;;;;12361895;28;20608;-45
2021/04/07 23:07:41;;;;;;;14.10;2.30;;;1.70;99.90;;;;;;12367948;28;20582;-43
2021/04/07 23:13:42;;;;;;;9.85;1.88;;;1.80;99.90;;;;;;12366407;28;20054;-45
2021/04/07 23:19:45;;;;;;;9.93;1.80;;;1.90;99.90;;;;;;12369355;28;20746;-43
2021/04/07 23:25:46;;;;;;;13.57;1.92;;;1.90;99.90;;;;;;12370417;28;20054;-42
2021/04/07 23:31:47;;;;;;;12.25;2.20;;;1.80;99.90;;;;;;12367981;28;20045;-43
2021/04/07 23:37:49;;;;;;;10.48;2.05;;;1.80;99.90;;;;;;12367219;28;20479;-42
2021/04/07 23:43:51;;;;;;;8.18;2.10;;;1.70;99.90;;;;;;12363175;28;20122;-42
2021/04/07 23:49:52;;;;;;;13.57;2.00;;;1.60;99.90;;;;;;12366194;28;20076;-42
2021/04/07 23:55:53;;;;;;;14.70;2.60;;;1.70;99.90;;;;;;12379284;28;20503;-44
